New Sweden, Idaho
Current Conditions -  °F | °C
As of 8:53 AM on Monday 24 Nov 2014 (Local Time) from KIDA Reporting Station
Few Clouds Few Clouds  
Wind Chill: -7°   Ceiling: Unl
Heat Index: -2°   Visibility: 10mi
Dew Point: -4°   Wind: 12mph
Humidity: 82%   Direction: 220°SW
Pressure: 30.26"   Gusts: NA
Location:  43.498°N, 111.73°W
Report Text: KIDA 241553Z 22010KT 10SM FEW080 M02/M04 A3026 RMK AO2 SLP273 T10171044
Loading
Personal Weather Stations






























Interactive Weather Map New forecast layout! Learn more

10-Day Weather Forecast

Advertisements
Track Severe Weather on mobile